Terminal Aerodrome Forecast
Issued by NWS Nashville, TN

Home | Current Version | Previous Version | Text Only | Print | Product List | Glossary On
Versions: 1 2 3 4 5 6 7 8 9 10 11 12 13 14 15 16 17 18 19 20 21
000
FTUS44 KOHX 231432 AAA
TAFBNA
TAF AMD
KBNA 231432Z 2315/2412 14011KT 5SM -SHRA SCT015 OVC025
      TEMPO 2315/2317 2SM -SHRA BKN011 OVC025
     FM231800 20008KT 4SM SHRA OVC025
     FM232200 21003KT P6SM VCSH SCT040 BKN080
     FM240600 23002KT 3SM BR VCSH OVC012=

USA.gov is the U.S. government's official web portal to all federal, state and local government web resources and services.